Terminal Aerodrome Forecast
Issued by NWS Louisville, KY

Home | Current Version | Previous Version | Text Only | Print | Product List | Glossary On
Versions: 1 2 3 4 5 6 7 8 9 10 11 12 13 14 15
000
FTUS43 KLMK 210500
TAFBWG
TAF
KBWG 210537Z 2106/2206 34006KT 5SM BR BKN008
     FM211500 32008KT P6SM OVC015
     FM211700 33008KT P6SM BKN025
     FM212200 33004KT P6SM SCT035=

USA.gov is the U.S. government's official web portal to all federal, state and local government web resources and services.